Time;durP1;ratioP1;P1;durP2;ratioP2;P2;SDS_P1;SDS_P2;PMS_P1;PMS_P2;Temp;Humidity;BMP_temperature;BMP_pressure;BME280_temperature;BME280_humidity;BME280_pressure;Samples;Min_cycle;Max_cycle;Signal;HPM_P1;HPM_P2
2022/06/23 00:00:39;;;;;;;4.38;3.88;;;15.80;99.90;;;;;;5050283;28;20040;-83
2022/06/23 00:03:06;;;;;;;4.40;3.95;;;15.70;99.90;;;;;;5049795;28;20045;-81
2022/06/23 00:05:40;;;;;;;4.47;4.00;;;15.70;99.90;;;;;;5050901;28;20036;-82
2022/06/23 00:08:12;;;;;;;4.22;3.75;;;15.80;99.90;;;;;;5050369;28;20037;-82
2022/06/23 00:10:47;;;;;;;6.43;4.18;;;15.70;99.90;;;;;;5050160;28;20053;-82
2022/06/23 00:13:23;;;;;;;6.47;3.88;;;15.80;99.90;;;;;;5041263;28;20044;-81
2022/06/23 00:15:52;;;;;;;5.55;3.63;;;15.70;99.90;;;;;;5054288;28;20037;-82
2022/06/23 00:18:20;;;;;;;6.30;3.80;;;15.70;99.90;;;;;;5054207;28;20037;-83
2022/06/23 00:20:52;;;;;;;4.97;3.78;;;15.60;99.90;;;;;;5054370;28;20040;-81
2022/06/23 00:23:25;;;;;;;5.55;3.97;;;15.60;99.90;;;;;;5035600;28;20050;-82
2022/06/23 00:25:57;;;;;;;4.88;3.65;;;15.50;99.90;;;;;;5048673;28;20049;-84
2022/06/23 00:28:31;;;;;;;5.00;3.85;;;15.40;99.90;;;;;;5055542;28;20528;-82
2022/06/23 00:31:00;;;;;;;5.78;4.00;;;15.40;99.90;;;;;;5053935;28;20051;-83
2022/06/23 00:33:44;;;;;;;6.80;4.13;;;15.30;99.90;;;;;;5053711;28;20032;-82
2022/06/23 00:36:37;;;;;;;5.28;4.68;;;15.40;99.90;;;;;;5054030;28;20049;-82
2022/06/23 00:39:19;;;;;;;5.43;4.28;;;15.30;99.90;;;;;;5054151;28;20098;-83
2022/06/23 00:41:45;;;;;;;5.85;4.45;;;15.30;99.90;;;;;;5053524;28;20129;-82
2022/06/23 00:44:36;;;;;;;5.72;4.82;;;15.20;99.90;;;;;;5052116;28;20546;-82
2022/06/23 00:47:06;;;;;;;6.20;4.70;;;15.20;99.90;;;;;;5023673;28;20564;-83
2022/06/23 00:49:41;;;;;;;6.00;4.88;;;15.20;99.90;;;;;;5053872;28;20077;-81
2022/06/23 00:52:23;;;;;;;5.15;4.53;;;15.20;99.90;;;;;;5053928;28;20044;-82
2022/06/23 00:54:54;;;;;;;6.28;4.75;;;15.20;99.90;;;;;;5051843;28;20037;-83
2022/06/23 00:57:36;;;;;;;6.60;4.55;;;15.10;99.90;;;;;;5054767;28;20048;-83
2022/06/23 01:00:16;;;;;;;6.18;5.00;;;15.10;99.90;;;;;;5037204;28;20045;-82
2022/06/23 01:02:56;;;;;;;7.18;5.07;;;15.00;99.90;;;;;;5053827;28;20059;-82
2022/06/23 01:05:38;;;;;;;6.00;5.22;;;15.00;99.90;;;;;;5053826;28;20495;-82
2022/06/23 01:08:16;;;;;;;6.75;4.65;;;15.00;99.90;;;;;;5054539;28;20079;-82
2022/06/23 01:10:48;;;;;;;6.90;4.63;;;14.90;99.90;;;;;;5053326;28;20044;-82
2022/06/23 01:13:37;;;;;;;5.72;5.13;;;14.90;99.90;;;;;;5053385;28;20061;-83
2022/06/23 01:16:14;;;;;;;5.90;5.07;;;14.90;99.90;;;;;;5032631;28;20049;-83
2022/06/23 01:19:18;;;;;;;6.18;5.57;;;14.90;99.90;;;;;;5037935;28;20052;-83
2022/06/23 01:22:00;;;;;;;5.93;5.30;;;14.90;99.90;;;;;;5022579;28;20045;-83
2022/06/23 01:24:34;;;;;;;6.80;5.47;;;14.90;99.90;;;;;;5052509;28;20130;-83
2022/06/23 01:27:11;;;;;;;;;;;14.90;99.90;;;;;;5053388;28;20036;-83
2022/06/23 01:29:40;;;;;;;6.57;5.68;;;14.90;99.90;;;;;;5053223;28;20008;-83
2022/06/23 01:32:28;;;;;;;8.45;6.20;;;14.80;99.90;;;;;;5052658;28;20059;-83
2022/06/23 01:35:01;;;;;;;8.00;5.50;;;14.80;99.90;;;;;;5053368;28;20049;-83
2022/06/23 01:38:00;;;;;;;7.22;5.50;;;14.70;99.90;;;;;;5053949;28;20052;-83
2022/06/23 01:40:39;;;;;;;8.10;5.57;;;14.70;99.90;;;;;;5050325;28;20045;-82
2022/06/23 01:43:15;;;;;;;8.27;5.93;;;14.70;99.90;;;;;;5054015;28;20037;-82
2022/06/23 01:45:53;;;;;;;6.65;5.88;;;14.70;99.90;;;;;;5052036;28;20124;-83
2022/06/23 01:48:53;;;;;;;7.78;6.18;;;14.70;99.90;;;;;;5052759;28;20124;-82
2022/06/23 01:51:29;;;;;;;7.57;6.03;;;14.60;99.90;;;;;;5054488;28;20067;-82
2022/06/23 01:54:09;;;;;;;6.88;6.13;;;14.60;99.90;;;;;;5052032;28;20108;-81
2022/06/23 01:56:59;;;;;;;7.32;6.63;;;14.60;99.90;;;;;;5051952;28;20445;-82
2022/06/23 01:59:42;;;;;;;8.07;6.28;;;14.60;99.90;;;;;;5053920;28;20380;-81
2022/06/23 02:02:11;;;;;;;7.47;6.32;;;14.50;99.90;;;;;;5052432;28;20555;-82
2022/06/23 02:05:11;;;;;;;7.43;6.40;;;14.50;99.90;;;;;;5051466;28;20053;-82
2022/06/23 02:07:50;;;;;;;8.43;6.80;;;14.40;99.90;;;;;;5053404;28;20423;-83
2022/06/23 02:10:38;;;;;;;8.15;6.32;;;14.40;99.90;;;;;;5052305;28;20517;-82
2022/06/23 02:13:10;;;;;;;8.55;7.30;;;14.40;99.90;;;;;;5053555;28;20041;-83
2022/06/23 02:15:35;;;;;;;8.30;7.05;;;14.40;99.90;;;;;;5048962;28;20089;-83
2022/06/23 02:18:46;;;;;;;8.68;7.10;;;14.30;99.90;;;;;;5051636;28;20048;-83
2022/06/23 02:21:31;;;;;;;9.60;8.20;;;14.30;99.90;;;;;;4991451;28;20054;-82
2022/06/23 02:24:29;;;;;;;9.38;7.45;;;14.20;99.90;;;;;;5050666;28;20499;-82
2022/06/23 02:27:22;;;;;;;9.98;7.30;;;14.20;99.90;;;;;;5048885;28;20124;-82
2022/06/23 02:29:58;;;;;;;9.68;7.47;;;14.10;99.90;;;;;;5017699;28;20054;-82
2022/06/23 02:32:54;;;;;;;8.18;7.38;;;14.00;99.90;;;;;;5033212;28;20120;-81
2022/06/23 02:35:30;;;;;;;8.48;7.28;;;14.00;99.90;;;;;;5045202;28;20437;-82
2022/06/23 02:38:03;;;;;;;9.10;7.43;;;14.00;99.90;;;;;;5053132;28;20068;-81
2022/06/23 02:41:09;;;;;;;8.82;7.35;;;14.00;99.90;;;;;;5053054;28;20049;-82
2022/06/23 02:43:59;;;;;;;8.52;7.63;;;14.00;99.90;;;;;;4974848;28;20046;-80
2022/06/23 02:46:40;;;;;;;9.32;7.20;;;14.00;99.90;;;;;;4975000;28;20046;-82
2022/06/23 02:49:19;;;;;;;8.98;6.93;;;14.00;99.90;;;;;;5030109;28;20060;-83
2022/06/23 02:51:57;;;;;;;9.07;7.20;;;13.90;99.90;;;;;;5050984;28;20120;-82
2022/06/23 02:54:43;;;;;;;11.52;6.97;;;13.90;99.90;;;;;;5050234;28;20044;-81
2022/06/23 02:57:20;;;;;;;9.65;8.10;;;13.80;99.90;;;;;;5052556;28;20454;-80
2022/06/23 02:59:58;;;;;;;8.55;7.45;;;13.80;99.90;;;;;;5052282;28;20086;-83
2022/06/23 03:02:41;;;;;;;8.02;7.20;;;13.70;99.90;;;;;;5052153;28;20394;-82
2022/06/23 03:05:31;;;;;;;7.30;6.30;;;13.70;99.90;;;;;;5051579;28;20511;-83
2022/06/23 03:08:08;;;;;;;7.63;6.85;;;13.70;99.90;;;;;;5052085;28;20115;-81
2022/06/23 03:10:57;;;;;;;7.70;6.90;;;13.60;99.90;;;;;;5052358;28;20419;-82
2022/06/23 03:13:35;;;;;;;7.63;6.75;;;13.60;99.90;;;;;;5052228;28;20037;-81
2022/06/23 03:16:14;;;;;;;10.35;7.05;;;13.50;99.90;;;;;;5051796;28;20102;-81
2022/06/23 03:18:50;;;;;;;9.48;7.07;;;13.50;99.90;;;;;;5052010;28;20033;-82
2022/06/23 03:21:23;;;;;;;7.75;6.90;;;13.50;99.90;;;;;;5051797;28;20053;-82
2022/06/23 03:24:08;;;;;;;9.40;7.10;;;13.50;99.90;;;;;;5049809;28;20072;-81
2022/06/23 03:26:43;;;;;;;7.40;6.63;;;13.50;99.90;;;;;;5050852;28;20052;-82
2022/06/23 03:29:29;;;;;;;10.38;7.45;;;13.50;99.90;;;;;;5050360;28;20040;-83
2022/06/23 03:32:03;;;;;;;8.38;6.93;;;13.50;99.90;;;;;;5049736;28;20091;-83
2022/06/23 03:34:34;;;;;;;10.20;7.60;;;13.50;99.90;;;;;;5049771;28;20067;-82
2022/06/23 03:37:12;;;;;;;8.85;7.53;;;13.50;99.90;;;;;;5051624;28;20052;-82
2022/06/23 03:42:43;;;;;;;9.27;7.57;;;13.60;99.90;;;;;;5051492;28;20040;-82
2022/06/23 03:45:27;;;;;;;12.38;7.97;;;13.60;99.90;;;;;;5050941;28;20050;-82
2022/06/23 03:47:59;;;;;;;9.35;8.15;;;13.60;99.90;;;;;;5051059;28;20151;-82
2022/06/23 03:50:27;;;;;;;11.38;7.75;;;13.70;99.90;;;;;;5051407;28;20047;-82
2022/06/23 03:53:00;;;;;;;10.00;8.30;;;13.70;99.90;;;;;;5051232;28;20045;-83
2022/06/23 03:55:30;;;;;;;10.23;8.32;;;13.70;99.90;;;;;;5049207;28;20041;-83
2022/06/23 03:58:01;;;;;;;8.73;7.80;;;13.70;99.90;;;;;;5050294;28;20048;-83
2022/06/23 04:00:41;;;;;;;9.95;8.25;;;13.70;99.90;;;;;;5051206;28;20043;-82
2022/06/23 04:03:20;;;;;;;11.52;8.43;;;13.80;99.90;;;;;;5051278;28;20051;-81
2022/06/23 04:05:54;;;;;;;11.63;8.18;;;13.80;99.90;;;;;;5049428;28;20518;-82
2022/06/23 04:08:25;;;;;;;13.73;8.30;;;13.80;99.90;;;;;;5051400;28;20052;-81
2022/06/23 04:10:54;;;;;;;10.63;8.85;;;13.80;99.90;;;;;;5050013;28;20041;-81
2022/06/23 04:13:29;;;;;;;11.43;8.52;;;13.80;99.90;;;;;;5050107;28;20049;-82
2022/06/23 04:16:03;;;;;;;10.70;8.52;;;13.90;99.90;;;;;;5048747;28;20041;-81
2022/06/23 04:18:31;;;;;;;9.23;8.20;;;13.90;99.90;;;;;;5050226;28;20091;-81
2022/06/23 04:21:07;;;;;;;11.18;8.68;;;14.00;99.90;;;;;;5030242;28;20112;-83
2022/06/23 04:23:41;;;;;;;12.35;9.27;;;14.00;99.90;;;;;;5039766;28;20079;-82
2022/06/23 04:26:17;;;;;;;12.05;9.10;;;14.10;99.90;;;;;;5050636;28;20490;-83
2022/06/23 04:28:46;;;;;;;10.65;8.57;;;14.10;99.90;;;;;;5051226;28;20087;-83
2022/06/23 04:31:24;;;;;;;12.32;9.55;;;14.20;99.90;;;;;;5048115;28;20049;-81
2022/06/23 04:33:50;;;;;;;11.30;8.68;;;14.20;99.90;;;;;;5048487;28;20495;-81
2022/06/23 04:36:23;;;;;;;12.25;8.75;;;14.30;99.90;;;;;;5050839;28;20140;-84
2022/06/23 04:39:16;;;;;;;13.35;9.30;;;14.30;99.90;;;;;;5051080;28;20043;-82
2022/06/23 04:41:58;;;;;;;12.60;9.15;;;14.40;99.90;;;;;;5048635;28;20118;-81
2022/06/23 04:44:31;;;;;;;12.70;8.77;;;14.50;99.90;;;;;;5048696;28;20086;-84
2022/06/23 04:47:06;;;;;;;12.10;8.85;;;14.60;99.90;;;;;;5043792;28;20053;-81
2022/06/23 04:49:39;;;;;;;10.85;9.05;;;14.60;99.90;;;;;;5040634;28;20041;-83
2022/06/23 04:52:12;;;;;;;14.00;9.32;;;14.70;99.90;;;;;;5051127;28;20596;-82
2022/06/23 04:54:54;;;;;;;12.65;9.27;;;14.80;99.90;;;;;;5050501;28;20040;-83
2022/06/23 04:57:32;;;;;;;12.70;8.95;;;14.80;99.90;;;;;;5050441;28;20045;-82
2022/06/23 05:00:01;;;;;;;12.20;9.55;;;14.90;99.90;;;;;;5054761;28;20048;-81
2022/06/23 05:02:32;;;;;;;12.88;9.23;;;15.00;99.90;;;;;;5054670;28;20071;-82
2022/06/23 05:05:03;;;;;;;14.75;9.23;;;15.10;99.90;;;;;;5055203;28;20079;-80
2022/06/23 05:07:43;;;;;;;13.48;8.73;;;15.20;99.90;;;;;;5054688;28;20648;-83
2022/06/23 05:10:21;;;;;;;13.73;9.85;;;15.30;99.90;;;;;;5052605;28;20041;-82
2022/06/23 05:12:57;;;;;;;11.07;9.00;;;15.30;99.90;;;;;;5054530;28;20082;-80
2022/06/23 05:15:42;;;;;;;11.55;9.52;;;15.40;99.90;;;;;;5050729;28;20045;-82
2022/06/23 05:18:16;;;;;;;12.90;9.07;;;15.50;99.90;;;;;;5054473;28;20533;-82
2022/06/23 05:20:50;;;;;;;13.02;8.43;;;15.60;99.90;;;;;;5053285;28;20091;-79
2022/06/23 05:23:39;;;;;;;13.75;9.50;;;15.60;99.90;;;;;;5052088;28;20491;-82
2022/06/23 05:26:14;;;;;;;10.95;8.88;;;15.70;99.90;;;;;;5052216;28;20052;-81
2022/06/23 05:28:43;;;;;;;13.48;9.32;;;15.80;99.90;;;;;;5054473;28;20440;-81
2022/06/23 05:31:18;;;;;;;11.70;9.60;;;15.90;99.90;;;;;;5052971;28;20076;-82
2022/06/23 05:33:50;;;;;;;12.15;9.48;;;16.00;99.90;;;;;;5053009;28;20529;-79
2022/06/23 05:36:25;;;;;;;12.68;9.10;;;16.10;99.90;;;;;;5052965;28;20080;-82
2022/06/23 05:38:56;;;;;;;11.88;9.25;;;16.20;99.90;;;;;;5053418;28;20037;-80
2022/06/23 05:41:27;;;;;;;12.70;9.43;;;16.30;99.90;;;;;;5053033;28;20037;-83
2022/06/23 05:43:56;;;;;;;10.40;8.80;;;16.40;99.90;;;;;;5052185;28;20077;-78
2022/06/23 05:46:23;;;;;;;11.57;9.00;;;16.60;99.90;;;;;;5051807;28;20053;-80
2022/06/23 05:49:13;;;;;;;11.88;9.25;;;16.70;99.90;;;;;;5052837;28;20044;-79
2022/06/23 05:51:51;;;;;;;12.15;9.73;;;16.80;99.90;;;;;;5054147;28;20383;-79
2022/06/23 05:54:20;;;;;;;12.30;9.15;;;16.80;99.90;;;;;;5053762;28;20051;-81
2022/06/23 05:57:16;;;;;;;16.33;9.48;;;16.90;99.90;;;;;;5052720;28;20045;-79
2022/06/23 06:00:14;;;;;;;12.10;9.23;;;17.10;99.90;;;;;;5048607;28;20118;-79
2022/06/23 06:02:52;;;;;;;11.10;8.70;;;17.20;99.90;;;;;;5052978;28;20045;-79
2022/06/23 06:05:26;;;;;;;12.73;9.10;;;17.40;99.90;;;;;;5052451;28;20048;-80
2022/06/23 06:07:52;;;;;;;;;;;17.50;99.90;;;;;;5052875;28;20148;-81
2022/06/23 06:10:22;;;;;;;10.75;8.75;;;17.60;99.90;;;;;;5052038;28;20061;-81
2022/06/23 06:12:50;;;;;;;11.30;8.75;;;17.70;99.90;;;;;;5053073;28;20401;-80
2022/06/23 06:15:29;;;;;;;12.98;9.40;;;17.80;99.90;;;;;;5049892;28;20474;-78
2022/06/23 06:18:07;;;;;;;11.75;9.43;;;18.00;99.90;;;;;;5045568;28;20044;-81
2022/06/23 06:20:34;;;;;;;10.73;8.77;;;18.00;99.90;;;;;;5050629;28;20047;-79
2022/06/23 06:23:29;;;;;;;10.35;8.93;;;18.10;99.90;;;;;;5052454;28;20045;-80
2022/06/23 06:25:55;;;;;;;12.95;9.27;;;18.20;99.90;;;;;;5051973;28;20041;-79
2022/06/23 06:28:23;;;;;;;12.77;8.93;;;18.30;99.90;;;;;;5052343;28;20048;-79
2022/06/23 06:31:17;;;;;;;11.30;9.27;;;18.40;99.90;;;;;;5051851;28;20495;-81
2022/06/23 06:34:00;;;;;;;10.43;9.10;;;18.50;99.90;;;;;;5052558;28;20395;-80
2022/06/23 06:36:28;;;;;;;14.85;9.43;;;18.70;99.90;;;;;;5051747;28;20041;-78
2022/06/23 06:39:01;;;;;;;10.60;8.93;;;18.70;99.90;;;;;;5053589;28;20402;-80
2022/06/23 06:41:26;;;;;;;14.95;8.57;;;18.90;99.90;;;;;;5053042;28;20040;-79
2022/06/23 06:43:52;;;;;;;12.60;8.93;;;19.00;99.90;;;;;;5050957;28;20036;-78
2022/06/23 06:46:18;;;;;;;10.32;8.68;;;19.10;99.90;;;;;;5049732;28;20456;-79
2022/06/23 06:48:44;;;;;;;10.82;8.05;;;19.20;99.90;;;;;;5051651;28;20123;-80
2022/06/23 06:51:25;;;;;;;11.10;8.27;;;19.40;99.90;;;;;;5051687;28;20048;-78
2022/06/23 06:53:57;;;;;;;12.52;8.07;;;19.50;99.90;;;;;;5051774;28;20430;-77
2022/06/23 06:56:40;;;;;;;8.80;7.85;;;19.60;99.90;;;;;;5051689;28;20049;-78
2022/06/23 06:59:15;;;;;;;12.37;7.63;;;19.70;99.90;;;;;;5052229;28;20115;-80
2022/06/23 07:01:44;;;;;;;10.55;7.97;;;19.90;99.90;;;;;;5052653;28;20047;-79
2022/06/23 07:04:19;;;;;;;11.77;8.13;;;20.10;99.90;;;;;;5050811;28;20087;-79
2022/06/23 07:06:50;;;;;;;10.10;8.27;;;20.20;99.90;;;;;;5052955;28;20047;-78
2022/06/23 07:09:54;;;;;;;12.07;7.82;;;20.20;99.90;;;;;;5051482;28;20049;-79
2022/06/23 07:12:30;;;;;;;11.60;7.88;;;20.30;99.90;;;;;;5051321;28;20498;-78
2022/06/23 07:15:22;;;;;;;11.63;7.97;;;20.40;99.90;;;;;;5051341;28;20395;-78
2022/06/23 07:17:55;;;;;;;9.45;7.82;;;20.40;99.90;;;;;;5051046;28;20053;-80
2022/06/23 07:20:39;;;;;;;12.07;7.93;;;20.50;99.90;;;;;;5050932;28;20118;-79
2022/06/23 07:23:18;;;;;;;12.25;7.32;;;20.60;99.90;;;;;;5050641;28;20549;-78
2022/06/23 07:26:09;;;;;;;11.55;7.63;;;20.80;99.90;;;;;;5050277;28;20082;-77
2022/06/23 07:28:43;;;;;;;11.07;7.40;;;20.90;99.90;;;;;;5051413;28;20091;-78
2022/06/23 07:31:19;;;;;;;11.43;7.35;;;21.00;99.90;;;;;;5050750;28;20053;-78
2022/06/23 07:33:51;;;;;;;10.13;7.47;;;21.10;99.90;;;;;;5046410;28;20044;-79
2022/06/23 07:36:25;;;;;;;8.30;6.90;;;21.20;99.90;;;;;;5050859;28;20101;-79
2022/06/23 07:38:58;;;;;;;13.95;7.85;;;21.30;99.90;;;;;;5032990;28;20514;-80
2022/06/23 07:41:32;;;;;;;10.20;7.53;;;21.50;99.90;;;;;;5039506;28;20103;-78
2022/06/23 07:44:13;;;;;;;11.90;7.28;;;21.60;99.90;;;;;;5044325;28;20048;-79
2022/06/23 07:46:39;;;;;;;11.32;7.20;;;21.70;99.90;;;;;;5052344;28;20064;-79
2022/06/23 07:49:06;;;;;;;10.50;7.63;;;21.80;99.90;;;;;;5051181;28;20028;-78
2022/06/23 07:51:33;;;;;;;11.65;7.32;;;21.80;99.90;;;;;;5050492;28;20041;-79
2022/06/23 07:53:59;;;;;;;9.57;7.03;;;22.00;99.90;;;;;;5051261;28;20068;-78
2022/06/23 07:56:28;;;;;;;10.23;6.95;;;22.10;99.90;;;;;;5051959;28;20041;-80
2022/06/23 07:59:04;;;;;;;8.98;6.60;;;22.20;99.90;;;;;;5051197;28;20048;-78
2022/06/23 08:01:43;;;;;;;11.52;7.00;;;22.30;99.90;;;;;;5051306;28;20112;-79
2022/06/23 08:04:22;;;;;;;8.45;7.13;;;22.40;99.90;;;;;;5050247;28;20716;-79
2022/06/23 08:06:49;;;;;;;11.30;7.13;;;22.50;99.90;;;;;;5052210;28;20051;-80
2022/06/23 08:09:32;;;;;;;10.35;6.50;;;22.60;99.90;;;;;;5052747;28;20043;-80
2022/06/23 08:18:01;;;;;;;9.20;7.00;;;22.90;99.90;;;;;;5041530;28;20045;-80
2022/06/23 08:20:33;;;;;;;8.80;6.43;;;23.10;99.90;;;;;;5043431;28;20052;-78
2022/06/23 08:23:00;;;;;;;11.23;6.85;;;23.20;99.90;;;;;;5046959;28;20045;-79
2022/06/23 08:25:25;;;;;;;9.20;6.40;;;23.30;99.90;;;;;;5045408;28;20049;-80
2022/06/23 08:27:52;;;;;;;7.32;6.32;;;23.40;99.90;;;;;;5047154;28;20526;-80
2022/06/23 08:30:18;;;;;;;11.70;6.35;;;23.40;99.90;;;;;;5047120;28;20056;-80
2022/06/23 08:32:48;;;;;;;9.27;6.13;;;23.50;99.90;;;;;;5046608;28;20103;-78
2022/06/23 08:35:23;;;;;;;9.98;6.53;;;23.60;99.90;;;;;;5048444;28;20091;-80
2022/06/23 08:37:54;;;;;;;7.22;5.40;;;23.70;99.90;;;;;;5050151;28;20562;-78
2022/06/23 08:40:40;;;;;;;11.23;5.90;;;23.80;99.90;;;;;;5048500;28;20155;-78
2022/06/23 08:43:37;;;;;;;7.97;5.43;;;23.90;99.90;;;;;;5050390;28;20065;-79
2022/06/23 08:46:39;;;;;;;9.63;5.68;;;24.00;99.90;;;;;;5050695;28;20388;-78
2022/06/23 08:49:27;;;;;;;6.35;5.00;;;24.10;99.90;;;;;;5048729;28;20438;-79
2022/06/23 08:51:59;;;;;;;8.27;5.68;;;24.10;99.90;;;;;;5048078;28;20123;-79
2022/06/23 08:55:01;;;;;;;8.75;5.55;;;24.20;99.90;;;;;;5045868;28;20105;-77
2022/06/23 08:57:36;;;;;;;7.05;4.93;;;24.20;99.90;;;;;;5048668;28;20051;-78
2022/06/23 09:00:08;;;;;;;7.88;4.75;;;24.30;99.90;;;;;;5053534;28;20041;-77
2022/06/23 09:03:10;;;;;;;10.25;5.15;;;24.40;99.90;;;;;;5047563;28;20068;-80
2022/06/23 09:06:04;;;;;;;7.80;5.18;;;24.40;99.90;;;;;;5046257;28;20507;-80
2022/06/23 09:09:03;;;;;;;7.60;4.80;;;24.50;99.90;;;;;;5049497;28;20124;-78
2022/06/23 09:11:46;;;;;;;9.73;5.03;;;24.50;99.90;;;;;;5048993;28;20313;-81
2022/06/23 09:14:19;;;;;;;7.80;5.05;;;24.60;99.90;;;;;;5048642;28;20053;-79
2022/06/23 09:17:12;;;;;;;10.18;4.38;;;24.70;99.90;;;;;;5047898;28;20041;-79
2022/06/23 09:19:43;;;;;;;7.93;4.47;;;24.70;99.90;;;;;;5048257;28;20048;-79
2022/06/23 09:22:46;;;;;;;7.03;4.00;;;24.80;99.90;;;;;;5048951;28;20116;-78
2022/06/23 09:25:16;;;;;;;6.72;4.53;;;24.80;99.90;;;;;;5047823;28;20037;-80
2022/06/23 09:28:01;;;;;;;11.60;4.18;;;24.90;99.90;;;;;;5049950;28;20056;-80
2022/06/23 09:30:51;;;;;;;8.35;4.03;;;24.90;99.90;;;;;;5046852;28;20041;-79
2022/06/23 09:33:47;;;;;;;6.97;4.00;;;25.00;99.90;;;;;;5052163;28;20033;-80
2022/06/23 09:36:36;;;;;;;5.95;3.42;;;25.10;99.90;;;;;;5053694;28;20049;-79
2022/06/23 09:39:23;;;;;;;5.97;3.65;;;25.20;99.90;;;;;;5054810;28;20033;-80
2022/06/23 09:42:33;;;;;;;8.07;3.63;;;25.30;99.90;;;;;;5053716;28;20491;-79
2022/06/23 09:45:22;;;;;;;4.80;3.60;;;25.40;99.90;;;;;;5049566;28;20099;-78
2022/06/23 09:48:02;;;;;;;10.63;4.40;;;25.60;99.90;;;;;;5053515;28;20044;-78
2022/06/23 09:50:46;;;;;;;6.85;3.50;;;25.60;99.90;;;;;;5052896;28;20499;-79
2022/06/23 09:53:31;;;;;;;4.38;3.42;;;25.60;99.90;;;;;;5051119;28;20055;-79
2022/06/23 09:56:13;;;;;;;4.68;3.40;;;25.70;99.90;;;;;;5052897;28;20060;-80
2022/06/23 09:58:57;;;;;;;6.57;3.30;;;25.80;99.90;;;;;;5053307;28;20120;-79
2022/06/23 10:01:54;;;;;;;4.18;3.30;;;25.90;99.90;;;;;;5053236;28;20391;-80
2022/06/23 10:05:01;;;;;;;5.95;3.13;;;26.00;99.90;;;;;;5054277;28;20482;-80
2022/06/23 10:07:39;;;;;;;6.88;3.60;;;26.10;99.90;;;;;;5054178;28;20049;-81
2022/06/23 10:10:16;;;;;;;6.43;2.70;;;26.10;99.90;;;;;;5054375;28;20067;-80
2022/06/23 10:13:06;;;;;;;7.88;3.70;;;26.20;99.90;;;;;;5051907;28;20403;-80
2022/06/23 10:15:53;;;;;;;7.60;3.47;;;26.30;99.90;;;;;;5050758;28;20052;-81
2022/06/23 10:18:31;;;;;;;12.38;4.05;;;26.40;99.90;;;;;;5050188;28;20632;-81
2022/06/23 10:21:32;;;;;;;5.53;3.40;;;26.40;99.90;;;;;;5049729;28;20041;-81
2022/06/23 10:24:11;;;;;;;6.07;3.20;;;26.50;99.90;;;;;;5045718;28;20094;-80
2022/06/23 10:27:10;;;;;;;7.13;3.13;;;26.70;99.90;;;;;;5053140;28;20067;-80
2022/06/23 10:30:03;;;;;;;6.60;3.17;;;26.70;99.90;;;;;;5051013;28;20045;-80
2022/06/23 10:32:53;;;;;;;4.72;2.83;;;26.90;99.90;;;;;;5052579;28;20032;-82
2022/06/23 10:35:40;;;;;;;8.07;3.22;;;27.00;99.90;;;;;;5051966;28;20044;-82
2022/06/23 10:38:43;;;;;;;6.18;2.88;;;27.10;99.30;;;;;;5050211;28;20418;-81
2022/06/23 10:41:35;;;;;;;6.43;2.72;;;27.10;99.40;;;;;;5049602;28;20110;-81
2022/06/23 10:44:32;;;;;;;6.63;2.63;;;27.20;99.50;;;;;;5051586;28;20052;-82
2022/06/23 10:47:14;;;;;;;5.03;2.85;;;27.40;99.00;;;;;;5052950;28;20403;-80
2022/06/23 10:50:01;;;;;;;7.15;2.67;;;27.50;98.40;;;;;;5052886;28;20584;-84
2022/06/23 10:52:56;;;;;;;3.65;2.58;;;27.60;98.20;;;;;;5057169;28;20093;-82
2022/06/23 10:55:30;;;;;;;6.28;2.40;;;27.70;98.30;;;;;;5044816;28;20403;-83
2022/06/23 10:58:27;;;;;;;4.47;2.40;;;27.80;97.60;;;;;;5050062;28;20556;-81
2022/06/23 11:01:07;;;;;;;9.77;2.60;;;27.90;97.60;;;;;;5050315;28;20037;-81
2022/06/23 11:04:04;;;;;;;9.98;2.67;;;28.10;97.60;;;;;;5049878;28;20037;-81
2022/06/23 11:06:50;;;;;;;4.60;2.40;;;28.20;97.30;;;;;;5051853;28;20056;-82
2022/06/23 11:09:19;;;;;;;5.63;2.83;;;28.30;96.90;;;;;;5052451;28;20045;-81
2022/06/23 11:12:01;;;;;;;6.72;2.70;;;28.40;96.70;;;;;;5050161;28;20491;-84
2022/06/23 11:14:39;;;;;;;5.90;2.75;;;28.50;96.80;;;;;;5045242;28;20124;-81
2022/06/23 11:17:37;;;;;;;5.97;2.30;;;28.60;94.90;;;;;;5047801;28;20041;-81
2022/06/23 11:20:45;;;;;;;4.25;2.60;;;28.80;96.30;;;;;;5044959;28;20033;-81
2022/06/23 11:23:29;;;;;;;7.10;2.92;;;28.90;95.90;;;;;;5022617;28;20140;-82
2022/06/23 11:26:25;;;;;;;8.93;2.83;;;29.10;95.90;;;;;;5052377;28;20121;-82
2022/06/23 11:29:15;;;;;;;6.22;2.50;;;29.20;95.50;;;;;;5054848;28;20037;-81
2022/06/23 11:31:59;;;;;;;5.88;2.67;;;29.30;96.00;;;;;;5044200;28;20045;-83
2022/06/23 11:34:32;;;;;;;8.07;2.70;;;29.50;96.10;;;;;;5044022;28;20033;-83
2022/06/23 11:37:12;;;;;;;4.03;2.70;;;29.60;95.60;;;;;;5034662;28;20040;-81
2022/06/23 11:39:57;;;;;;;4.35;2.50;;;29.80;95.20;;;;;;5047679;28;20129;-82
2022/06/23 11:43:13;;;;;;;5.55;2.55;;;29.90;95.40;;;;;;5033300;28;20139;-84
2022/06/23 11:45:50;;;;;;;5.18;2.40;;;30.00;95.00;;;;;;4989579;28;20157;-84
2022/06/23 11:48:48;;;;;;;3.88;2.50;;;30.30;94.50;;;;;;4994430;28;20050;-84
2022/06/23 11:51:40;;;;;;;4.93;2.72;;;30.30;94.40;;;;;;5022945;28;20057;-82
2022/06/23 11:54:48;;;;;;;6.70;2.75;;;30.50;93.70;;;;;;5035355;28;20103;-83
2022/06/23 11:57:43;;;;;;;4.10;2.10;;;30.60;93.70;;;;;;5018636;28;20140;-82
2022/06/23 12:00:16;;;;;;;4.95;2.28;;;30.80;92.40;;;;;;5051424;28;20547;-82
2022/06/23 12:03:02;;;;;;;4.82;2.40;;;31.00;92.90;;;;;;5048570;28;20040;-81
2022/06/23 12:05:54;;;;;;;11.45;2.80;;;31.10;92.60;;;;;;5049309;28;20103;-82
2022/06/23 12:08:57;;;;;;;4.13;2.00;;;31.30;92.70;;;;;;5030979;28;20419;-81
2022/06/23 12:11:24;;;;;;;2.97;1.98;;;31.50;92.50;;;;;;5049305;28;20040;-82
2022/06/23 12:13:49;;;;;;;3.45;1.75;;;31.60;91.90;;;;;;5052001;28;20040;-82
2022/06/23 12:16:16;;;;;;;2.83;1.90;;;31.70;91.20;;;;;;5049776;28;20045;-82
2022/06/23 12:18:52;;;;;;;6.75;2.08;;;31.90;91.00;;;;;;5050398;28;20029;-82
2022/06/23 12:21:43;;;;;;;8.43;2.47;;;32.00;90.30;;;;;;5052477;28;20045;-82
2022/06/23 12:24:32;;;;;;;4.38;1.80;;;32.20;90.70;;;;;;5044473;28;20053;-82
2022/06/23 12:27:11;;;;;;;2.65;1.80;;;32.40;90.20;;;;;;5053001;28;20120;-82
2022/06/23 12:29:53;;;;;;;4.50;1.80;;;32.50;87.70;;;;;;5053746;28;20040;-82
2022/06/23 12:32:30;;;;;;;5.25;2.05;;;32.70;87.40;;;;;;5050647;28;20103;-82
2022/06/23 12:35:05;;;;;;;4.45;1.60;;;32.90;86.70;;;;;;5050046;28;20049;-82
2022/06/23 12:37:47;;;;;;;5.40;1.67;;;32.90;84.70;;;;;;5053778;28;20495;-83
2022/06/23 12:40:17;;;;;;;3.55;1.67;;;33.00;84.50;;;;;;5049053;28;20072;-80
2022/06/23 12:42:55;;;;;;;3.47;1.60;;;33.10;83.20;;;;;;5050274;28;20071;-81
2022/06/23 12:45:57;;;;;;;3.88;1.80;;;33.10;82.20;;;;;;5052215;28;20067;-82
2022/06/23 12:48:49;;;;;;;18.48;6.78;;;33.10;82.00;;;;;;5052110;28;20053;-81
2022/06/23 12:51:43;;;;;;;4.22;2.20;;;33.20;80.00;;;;;;5051625;28;20388;-83
2022/06/23 12:54:14;;;;;;;;;;;33.30;80.60;;;;;;5048491;28;20037;-82
2022/06/23 12:57:02;;;;;;;12.05;5.25;;;33.40;80.80;;;;;;5050232;28;19932;-83
2022/06/23 12:59:49;;;;;;;4.78;1.90;;;33.50;80.20;;;;;;5051849;28;20073;-82
2022/06/23 13:02:38;;;;;;;2.28;1.70;;;33.60;81.10;;;;;;5043817;28;20044;-82
2022/06/23 13:05:17;;;;;;;5.13;1.70;;;33.60;79.50;;;;;;5045843;28;20531;-83
2022/06/23 13:07:57;;;;;;;3.42;1.58;;;33.80;79.30;;;;;;5051227;28;20052;-83
2022/06/23 13:10:42;;;;;;;6.68;2.33;;;33.90;78.80;;;;;;5050935;28;20099;-83
2022/06/23 13:13:17;;;;;;;5.07;1.70;;;34.00;78.10;;;;;;5049120;28;20037;-83
2022/06/23 13:15:55;;;;;;;3.53;1.90;;;34.10;77.50;;;;;;5050926;28;20045;-82
2022/06/23 13:18:29;;;;;;;3.92;1.63;;;34.10;74.70;;;;;;5050076;28;20033;-83
2022/06/23 13:21:12;;;;;;;5.70;1.90;;;34.20;74.40;;;;;;5054849;28;20033;-82
2022/06/23 13:23:44;;;;;;;4.32;1.73;;;34.00;75.60;;;;;;5056025;28;20086;-82
2022/06/23 13:26:21;;;;;;;3.30;1.83;;;34.30;75.50;;;;;;5049105;28;20123;-80
2022/06/23 13:28:53;;;;;;;3.85;1.70;;;34.50;74.90;;;;;;5052120;28;20045;-81
2022/06/23 13:31:26;;;;;;;3.75;1.50;;;34.60;74.70;;;;;;5055575;28;20049;-81
2022/06/23 13:34:12;;;;;;;2.85;1.50;;;34.70;74.30;;;;;;5043429;28;20042;-80
2022/06/23 13:37:15;;;;;;;3.70;1.60;;;34.70;73.10;;;;;;5055197;28;20045;-81
2022/06/23 13:40:00;;;;;;;3.05;1.52;;;34.90;73.80;;;;;;5054556;28;20112;-81
2022/06/23 13:42:39;;;;;;;2.95;1.80;;;35.00;73.60;;;;;;5057633;28;20049;-81
2022/06/23 13:45:17;;;;;;;3.05;1.42;;;35.10;71.80;;;;;;5053288;28;20037;-83
2022/06/23 13:47:56;;;;;;;2.63;1.80;;;35.00;71.70;;;;;;5054413;28;20041;-81
2022/06/23 13:50:30;;;;;;;2.50;1.70;;;35.00;71.60;;;;;;5055922;28;20355;-82
2022/06/23 13:53:24;;;;;;;3.58;1.75;;;35.20;72.20;;;;;;5052807;28;20041;-82
2022/06/23 13:55:56;;;;;;;3.03;1.50;;;35.30;69.00;;;;;;5050236;28;20439;-81
2022/06/23 13:58:31;;;;;;;2.55;1.50;;;35.50;71.50;;;;;;5053725;28;20044;-82